createdAt,value
2022-10-26T04:23:03.110Z,4.32
2022-10-26T04:28:06.078Z,4.18
2022-10-26T04:45:55.199Z,3.00
2022-10-26T04:51:01.033Z,3.70
2022-10-26T04:56:06.787Z,5.50
2022-10-26T05:01:08.426Z,4.30
2022-10-26T05:06:11.405Z,4.47
2022-10-26T05:11:13.078Z,4.53
2022-10-26T05:16:16.363Z,5.20
2022-10-26T05:21:19.959Z,5.35
2022-10-26T05:26:25.291Z,5.63
2022-10-26T05:31:29.893Z,5.18
2022-10-26T05:36:32.214Z,4.47
2022-10-26T05:41:33.955Z,5.22
2022-10-26T05:46:35.659Z,8.00
2022-10-26T05:51:37.645Z,7.53
2022-10-26T05:56:40.842Z,11.68
2022-10-26T06:02:09.592Z,12.63
2022-10-26T06:07:14.716Z,6.78
2022-10-26T06:12:19.341Z,5.80
2022-10-26T06:17:49.111Z,5.53
2022-10-26T06:23:17.962Z,5.13
2022-10-26T06:28:38.822Z,5.25
2022-10-26T06:33:41.231Z,5.70
2022-10-26T06:38:44.717Z,5.57
2022-10-26T06:43:46.813Z,6.68
2022-10-26T06:49:08.709Z,6.10
2022-10-26T06:54:27.705Z,4.97
2022-10-26T06:59:53.245Z,5.10
2022-10-26T07:04:54.792Z,5.32
2022-10-26T07:09:56.340Z,5.80
2022-10-26T07:14:57.918Z,5.00
2022-10-26T07:19:59.488Z,5.80
2022-10-26T07:25:03.072Z,5.45
2022-10-26T07:30:05.490Z,5.50
2022-10-26T07:35:07.395Z,4.88
2022-10-26T07:40:09.193Z,4.57
2022-10-26T07:45:11.045Z,6.70
2022-10-26T07:50:13.005Z,5.82
2022-10-26T07:55:14.718Z,5.32
2022-10-26T08:00:16.447Z,4.15
2022-10-26T08:05:18.094Z,4.68
2022-10-26T08:10:19.777Z,3.70
2022-10-26T08:15:21.459Z,3.60
2022-10-26T08:20:22.984Z,3.15
2022-10-26T08:25:26.084Z,3.53
2022-10-26T08:30:30.275Z,3.30
2022-10-26T08:35:32.982Z,3.10
2022-10-26T08:40:40.017Z,2.25
2022-10-26T08:45:48.862Z,2.65
2022-10-26T08:50:54.614Z,3.03
2022-10-26T08:56:11.553Z,2.72
2022-10-26T09:01:13.516Z,2.88
2022-10-26T09:06:26.774Z,2.70
2022-10-26T09:12:07.595Z,2.78
2022-10-26T09:17:12.605Z,3.05
2022-10-26T09:22:22.112Z,3.08
2022-10-26T09:27:28.778Z,2.30
2022-10-26T09:32:40.766Z,2.63
2022-10-26T09:37:51.804Z,2.63
2022-10-26T09:43:10.231Z,2.65
2022-10-26T09:48:39.727Z,2.15
2022-10-26T09:53:41.233Z,3.25
2022-10-26T09:58:50.825Z,3.28
2022-10-26T10:04:14.182Z,2.88
2022-10-26T10:09:24.278Z,3.00
2022-10-26T10:14:29.056Z,2.80
2022-10-26T10:19:33.211Z,2.85
2022-10-26T10:24:41.614Z,2.22
2022-10-26T10:29:45.673Z,2.00
2022-10-26T10:34:52.612Z,2.45
2022-10-26T10:39:59.525Z,2.10
2022-10-26T10:45:02.949Z,1.90
2022-10-26T10:50:20.344Z,2.55
2022-10-26T10:55:22.649Z,2.03
2022-10-26T11:00:25.616Z,2.03
2022-10-26T11:06:00.265Z,1.70
2022-10-26T11:11:11.955Z,2.10
2022-10-26T11:16:29.097Z,2.05
2022-10-26T11:21:33.657Z,2.13
2022-10-26T11:26:43.667Z,2.17
2022-10-26T11:31:54.569Z,1.95
2022-10-26T11:37:03.669Z,2.20
2022-10-26T11:42:41.379Z,1.63
2022-10-26T11:47:49.990Z,1.92
2022-10-26T11:53:15.755Z,2.00
2022-10-26T11:58:17.739Z,1.77
2022-10-26T12:03:27.031Z,1.60
2022-10-26T12:08:53.206Z,2.17
2022-10-26T12:14:15.824Z,1.70
2022-10-26T12:19:24.832Z,2.28
2022-10-26T12:24:35.505Z,1.80
2022-10-26T12:29:45.983Z,2.20
2022-10-26T12:35:00.360Z,2.15
2022-10-26T12:40:33.218Z,1.85
2022-10-26T12:45:34.850Z,1.88
2022-10-26T12:50:36.536Z,2.00
2022-10-26T12:55:50.011Z,2.25
2022-10-26T13:01:00.773Z,2.38
2022-10-26T13:06:14.620Z,2.00
2022-10-26T13:11:19.241Z,1.73
2022-10-26T13:16:20.951Z,1.63
2022-10-26T13:21:24.526Z,1.65
2022-10-26T13:26:28.056Z,1.70
2022-10-26T13:31:32.738Z,1.50
2022-10-26T13:36:56.054Z,1.80
2022-10-26T13:41:59.665Z,1.58
2022-10-26T13:47:05.041Z,1.67
2022-10-26T13:52:15.724Z,1.45
2022-10-26T13:57:34.326Z,1.67
2022-10-26T14:02:42.910Z,1.88
2022-10-26T14:08:16.892Z,2.25
2022-10-26T14:13:23.571Z,2.30
2022-10-26T14:18:28.333Z,2.00
2022-10-26T14:23:55.790Z,2.03
2022-10-26T14:29:00.263Z,1.75
2022-10-26T14:34:04.694Z,2.05
2022-10-26T14:44:58.801Z,2.00
2022-10-26T14:50:02.360Z,2.15
2022-10-26T14:55:10.461Z,1.55
2022-10-26T15:00:38.632Z,1.95
2022-10-26T15:05:40.767Z,1.90
2022-10-26T15:10:42.342Z,1.65
2022-10-26T15:15:47.061Z,1.90
2022-10-26T15:26:36.548Z,1.70
2022-10-26T15:31:38.839Z,2.00
2022-10-26T15:36:41.816Z,1.88
2022-10-26T15:41:47.638Z,2.17
2022-10-26T15:53:13.514Z,3.10
2022-10-26T16:10:26.576Z,3.00
2022-10-26T16:15:28.104Z,2.75
2022-10-26T16:26:08.061Z,2.45
2022-10-26T16:31:15.171Z,2.42
2022-10-26T16:36:17.095Z,2.13
2022-10-26T16:41:18.897Z,2.97
2022-10-26T16:46:21.822Z,2.90
2022-10-26T16:51:29.538Z,3.50
2022-10-26T16:56:31.164Z,3.70
2022-10-26T17:01:33.675Z,3.65
2022-10-26T17:06:37.833Z,3.17
2022-10-26T17:11:40.173Z,3.35
2022-10-26T17:16:41.882Z,4.00
2022-10-26T17:21:44.443Z,3.78
2022-10-26T17:26:46.027Z,3.72
2022-10-26T17:31:47.812Z,4.25
2022-10-26T17:36:49.548Z,3.60
2022-10-26T17:41:51.106Z,4.97
2022-10-26T17:46:52.689Z,3.63
2022-10-26T17:51:54.407Z,4.57
2022-10-26T17:56:56.028Z,5.13
2022-10-26T18:01:57.694Z,4.20
2022-10-26T18:06:59.343Z,5.35
2022-10-26T18:12:00.895Z,4.30
2022-10-26T18:17:02.464Z,5.85
2022-10-26T18:22:04.295Z,6.57
2022-10-26T18:27:06.038Z,6.15
2022-10-26T18:32:07.834Z,5.65
2022-10-26T18:37:09.386Z,5.40
2022-10-26T18:42:10.926Z,7.47
2022-10-26T18:47:12.515Z,5.45
2022-10-26T18:52:14.290Z,6.18
2022-10-26T18:57:16.134Z,5.93
2022-10-26T19:02:17.731Z,8.00
2022-10-26T19:07:19.693Z,7.20
2022-10-26T19:12:21.480Z,6.32
2022-10-26T19:17:23.289Z,5.93
2022-10-26T19:22:24.995Z,7.22
2022-10-26T19:27:26.666Z,6.63
2022-10-26T19:32:28.966Z,7.15
2022-10-26T19:49:17.067Z,6.75
2022-10-26T20:17:18.902Z,7.80
2022-10-26T20:28:12.275Z,7.65
2022-10-26T20:38:52.655Z,8.52
2022-10-26T21:14:06.521Z,7.75
2022-10-26T21:19:08.488Z,6.70
2022-10-26T21:24:10.105Z,7.57
2022-10-26T21:29:17.185Z,7.80
2022-10-26T21:34:18.966Z,9.63
2022-10-26T21:39:20.649Z,6.65
2022-10-26T21:44:38.756Z,7.25
2022-10-26T21:49:42.628Z,7.40
2022-10-26T21:54:44.431Z,7.05
2022-10-26T21:59:46.129Z,9.60
2022-10-26T22:04:48.072Z,6.88
2022-10-26T22:10:07.840Z,7.13
2022-10-26T22:15:11.613Z,6.70
2022-10-26T22:20:13.377Z,9.75
2022-10-26T22:25:15.115Z,9.07
2022-10-26T22:30:16.861Z,5.85
2022-10-26T22:35:28.997Z,6.18
2022-10-26T22:40:31.031Z,5.95
2022-10-26T22:45:32.781Z,6.95
2022-10-26T22:50:34.470Z,7.97
2022-10-26T22:55:36.215Z,8.63
2022-10-26T23:00:37.965Z,8.57
2022-10-26T23:05:46.030Z,8.10
2022-10-26T23:10:47.784Z,7.72
2022-10-26T23:15:49.552Z,6.18
2022-10-26T23:20:52.257Z,7.32
2022-10-26T23:25:54.126Z,7.70
2022-10-26T23:30:55.908Z,7.28
2022-10-26T23:35:57.808Z,7.55
2022-10-26T23:41:02.608Z,7.65
2022-10-26T23:46:04.808Z,7.60
2022-10-26T23:51:06.564Z,7.82
2022-10-26T23:56:08.335Z,6.40
